sensor_id;sensor_type;location;lat;lon;timestamp;P1;durP1;ratioP1;P2;durP2;ratioP2
15287;SDS011;7745;48.708;9.026;2023-04-01T00:00:02;4.17;;;0.60;;
15287;SDS011;7745;48.708;9.026;2023-04-01T00:02:30;2.40;;;0.60;;
15287;SDS011;7745;48.708;9.026;2023-04-01T00:04:57;2.23;;;0.60;;
15287;SDS011;7745;48.708;9.026;2023-04-01T00:07:24;2.43;;;0.70;;
15287;SDS011;7745;48.708;9.026;2023-04-01T00:09:50;2.93;;;0.50;;
15287;SDS011;7745;48.708;9.026;2023-04-01T00:12:17;2.87;;;0.70;;
15287;SDS011;7745;48.708;9.026;2023-04-01T00:14:45;2.03;;;0.83;;
15287;SDS011;7745;48.708;9.026;2023-04-01T00:17:12;1.97;;;0.57;;
15287;SDS011;7745;48.708;9.026;2023-04-01T00:19:39;1.93;;;0.80;;
15287;SDS011;7745;48.708;9.026;2023-04-01T00:22:05;5.10;;;0.80;;
15287;SDS011;7745;48.708;9.026;2023-04-01T00:24:36;2.43;;;0.80;;
15287;SDS011;7745;48.708;9.026;2023-04-01T00:27:03;3.93;;;0.80;;
15287;SDS011;7745;48.708;9.026;2023-04-01T00:29:30;2.10;;;0.70;;
15287;SDS011;7745;48.708;9.026;2023-04-01T00:31:59;4.83;;;1.13;;
15287;SDS011;7745;48.708;9.026;2023-04-01T00:34:26;2.93;;;0.80;;
15287;SDS011;7745;48.708;9.026;2023-04-01T00:36:53;2.87;;;0.70;;
15287;SDS011;7745;48.708;9.026;2023-04-01T00:39:19;2.37;;;1.00;;
15287;SDS011;7745;48.708;9.026;2023-04-01T00:41:46;1.43;;;0.60;;
15287;SDS011;7745;48.708;9.026;2023-04-01T00:44:17;3.80;;;0.90;;
15287;SDS011;7745;48.708;9.026;2023-04-01T00:46:45;4.50;;;0.93;;
15287;SDS011;7745;48.708;9.026;2023-04-01T00:49:14;3.60;;;0.80;;
15287;SDS011;7745;48.708;9.026;2023-04-01T00:51:43;4.03;;;0.73;;
15287;SDS011;7745;48.708;9.026;2023-04-01T00:54:13;3.40;;;0.80;;
15287;SDS011;7745;48.708;9.026;2023-04-01T00:56:42;3.90;;;0.80;;
15287;SDS011;7745;48.708;9.026;2023-04-01T00:59:14;3.30;;;0.70;;
15287;SDS011;7745;48.708;9.026;2023-04-01T01:01:46;2.67;;;0.90;;
15287;SDS011;7745;48.708;9.026;2023-04-01T01:04:22;3.17;;;1.00;;
15287;SDS011;7745;48.708;9.026;2023-04-01T01:06:51;4.20;;;0.60;;
15287;SDS011;7745;48.708;9.026;2023-04-01T01:09:32;4.47;;;1.20;;
15287;SDS011;7745;48.708;9.026;2023-04-01T01:12:08;3.17;;;0.90;;
15287;SDS011;7745;48.708;9.026;2023-04-01T01:14:47;3.00;;;0.63;;
15287;SDS011;7745;48.708;9.026;2023-04-01T01:17:22;3.63;;;1.00;;
15287;SDS011;7745;48.708;9.026;2023-04-01T01:20:07;2.90;;;0.60;;
15287;SDS011;7745;48.708;9.026;2023-04-01T01:23:19;3.33;;;0.50;;
15287;SDS011;7745;48.708;9.026;2023-04-01T01:26:09;2.53;;;0.90;;
15287;SDS011;7745;48.708;9.026;2023-04-01T01:28:52;3.20;;;1.13;;
15287;SDS011;7745;48.708;9.026;2023-04-01T01:31:29;2.07;;;0.70;;
15287;SDS011;7745;48.708;9.026;2023-04-01T01:34:05;4.07;;;0.80;;
15287;SDS011;7745;48.708;9.026;2023-04-01T01:36:42;2.40;;;0.63;;
15287;SDS011;7745;48.708;9.026;2023-04-01T01:39:11;5.73;;;1.27;;
15287;SDS011;7745;48.708;9.026;2023-04-01T01:41:39;1.97;;;0.60;;
15287;SDS011;7745;48.708;9.026;2023-04-01T01:44:08;1.37;;;0.70;;
15287;SDS011;7745;48.708;9.026;2023-04-01T01:46:39;1.60;;;0.60;;
15287;SDS011;7745;48.708;9.026;2023-04-01T01:49:08;5.47;;;0.60;;
15287;SDS011;7745;48.708;9.026;2023-04-01T01:51:37;2.77;;;0.67;;
15287;SDS011;7745;48.708;9.026;2023-04-01T01:54:06;1.00;;;0.50;;
15287;SDS011;7745;48.708;9.026;2023-04-01T01:56:33;1.87;;;0.70;;
15287;SDS011;7745;48.708;9.026;2023-04-01T01:59:02;2.00;;;0.60;;
15287;SDS011;7745;48.708;9.026;2023-04-01T02:01:31;2.40;;;0.90;;
15287;SDS011;7745;48.708;9.026;2023-04-01T02:04:01;2.70;;;0.60;;
15287;SDS011;7745;48.708;9.026;2023-04-01T02:06:30;3.20;;;0.67;;
15287;SDS011;7745;48.708;9.026;2023-04-01T02:09:02;2.30;;;0.60;;
15287;SDS011;7745;48.708;9.026;2023-04-01T02:11:34;3.00;;;0.70;;
15287;SDS011;7745;48.708;9.026;2023-04-01T02:14:06;2.53;;;0.43;;
15287;SDS011;7745;48.708;9.026;2023-04-01T02:16:38;1.20;;;0.50;;
15287;SDS011;7745;48.708;9.026;2023-04-01T02:19:10;0.97;;;0.40;;
15287;SDS011;7745;48.708;9.026;2023-04-01T02:21:39;1.53;;;0.30;;
15287;SDS011;7745;48.708;9.026;2023-04-01T02:24:10;3.80;;;0.57;;
15287;SDS011;7745;48.708;9.026;2023-04-01T02:26:41;1.30;;;0.40;;
15287;SDS011;7745;48.708;9.026;2023-04-01T02:29:09;0.90;;;0.40;;
15287;SDS011;7745;48.708;9.026;2023-04-01T02:31:38;2.27;;;0.40;;
15287;SDS011;7745;48.708;9.026;2023-04-01T02:34:05;0.87;;;0.50;;
15287;SDS011;7745;48.708;9.026;2023-04-01T02:36:32;0.60;;;0.30;;
15287;SDS011;7745;48.708;9.026;2023-04-01T02:39:01;0.57;;;0.40;;
15287;SDS011;7745;48.708;9.026;2023-04-01T02:41:29;2.57;;;0.50;;
15287;SDS011;7745;48.708;9.026;2023-04-01T02:43:57;1.23;;;0.20;;
15287;SDS011;7745;48.708;9.026;2023-04-01T02:46:24;2.00;;;0.37;;
15287;SDS011;7745;48.708;9.026;2023-04-01T02:48:51;0.70;;;0.20;;
15287;SDS011;7745;48.708;9.026;2023-04-01T02:51:18;1.10;;;0.40;;
15287;SDS011;7745;48.708;9.026;2023-04-01T02:53:45;1.00;;;0.30;;
15287;SDS011;7745;48.708;9.026;2023-04-01T02:56:12;1.27;;;0.40;;
15287;SDS011;7745;48.708;9.026;2023-04-01T02:58:39;0.93;;;0.20;;
15287;SDS011;7745;48.708;9.026;2023-04-01T03:01:07;0.73;;;0.50;;
15287;SDS011;7745;48.708;9.026;2023-04-01T03:03:34;0.40;;;0.27;;
15287;SDS011;7745;48.708;9.026;2023-04-01T03:06:04;0.63;;;0.30;;
15287;SDS011;7745;48.708;9.026;2023-04-01T03:08:31;2.63;;;0.30;;
15287;SDS011;7745;48.708;9.026;2023-04-01T03:10:58;1.50;;;0.40;;
15287;SDS011;7745;48.708;9.026;2023-04-01T03:13:25;1.13;;;0.30;;
15287;SDS011;7745;48.708;9.026;2023-04-01T03:15:52;0.80;;;0.27;;
15287;SDS011;7745;48.708;9.026;2023-04-01T03:18:20;1.13;;;0.33;;
15287;SDS011;7745;48.708;9.026;2023-04-01T03:20:47;1.70;;;0.30;;
15287;SDS011;7745;48.708;9.026;2023-04-01T03:23:14;0.80;;;0.30;;
15287;SDS011;7745;48.708;9.026;2023-04-01T03:25:42;0.40;;;0.20;;
15287;SDS011;7745;48.708;9.026;2023-04-01T03:28:09;1.73;;;0.53;;
15287;SDS011;7745;48.708;9.026;2023-04-01T03:30:37;1.93;;;0.30;;
15287;SDS011;7745;48.708;9.026;2023-04-01T03:33:04;2.37;;;0.47;;
15287;SDS011;7745;48.708;9.026;2023-04-01T03:35:32;2.30;;;0.30;;
15287;SDS011;7745;48.708;9.026;2023-04-01T03:38:01;2.20;;;0.33;;
15287;SDS011;7745;48.708;9.026;2023-04-01T03:40:27;0.97;;;0.30;;
15287;SDS011;7745;48.708;9.026;2023-04-01T03:42:54;1.40;;;0.30;;
15287;SDS011;7745;48.708;9.026;2023-04-01T03:45:21;2.63;;;0.43;;
15287;SDS011;7745;48.708;9.026;2023-04-01T03:47:48;1.30;;;0.40;;
15287;SDS011;7745;48.708;9.026;2023-04-01T03:50:15;1.07;;;0.50;;
15287;SDS011;7745;48.708;9.026;2023-04-01T03:52:44;3.17;;;0.50;;
15287;SDS011;7745;48.708;9.026;2023-04-01T03:55:11;1.43;;;0.30;;
15287;SDS011;7745;48.708;9.026;2023-04-01T03:57:38;1.83;;;0.40;;
15287;SDS011;7745;48.708;9.026;2023-04-01T04:00:05;1.77;;;0.40;;
15287;SDS011;7745;48.708;9.026;2023-04-01T04:02:34;2.73;;;0.47;;
15287;SDS011;7745;48.708;9.026;2023-04-01T04:05:01;2.27;;;0.60;;
15287;SDS011;7745;48.708;9.026;2023-04-01T04:07:27;2.47;;;0.50;;
15287;SDS011;7745;48.708;9.026;2023-04-01T04:09:56;3.07;;;0.60;;
15287;SDS011;7745;48.708;9.026;2023-04-01T04:12:22;1.67;;;0.37;;
15287;SDS011;7745;48.708;9.026;2023-04-01T04:14:49;1.73;;;0.40;;
15287;SDS011;7745;48.708;9.026;2023-04-01T04:17:16;2.03;;;0.30;;
15287;SDS011;7745;48.708;9.026;2023-04-01T04:19:43;2.67;;;0.37;;
15287;SDS011;7745;48.708;9.026;2023-04-01T04:22:10;1.17;;;0.20;;
15287;SDS011;7745;48.708;9.026;2023-04-01T04:24:36;1.57;;;0.50;;
15287;SDS011;7745;48.708;9.026;2023-04-01T04:27:05;1.20;;;0.20;;
15287;SDS011;7745;48.708;9.026;2023-04-01T04:29:32;0.97;;;0.23;;
15287;SDS011;7745;48.708;9.026;2023-04-01T04:31:59;2.47;;;0.50;;
15287;SDS011;7745;48.708;9.026;2023-04-01T04:34:26;1.33;;;0.30;;
15287;SDS011;7745;48.708;9.026;2023-04-01T04:36:52;1.10;;;0.40;;
15287;SDS011;7745;48.708;9.026;2023-04-01T04:39:19;2.07;;;0.40;;
15287;SDS011;7745;48.708;9.026;2023-04-01T04:41:46;2.50;;;0.50;;
15287;SDS011;7745;48.708;9.026;2023-04-01T04:44:14;1.43;;;0.40;;
15287;SDS011;7745;48.708;9.026;2023-04-01T04:46:41;2.30;;;0.40;;
15287;SDS011;7745;48.708;9.026;2023-04-01T04:49:07;0.80;;;0.50;;
15287;SDS011;7745;48.708;9.026;2023-04-01T04:51:34;2.50;;;0.53;;
15287;SDS011;7745;48.708;9.026;2023-04-01T04:54:01;2.23;;;0.57;;
15287;SDS011;7745;48.708;9.026;2023-04-01T04:56:29;1.57;;;0.50;;
15287;SDS011;7745;48.708;9.026;2023-04-01T04:58:56;1.23;;;0.70;;
15287;SDS011;7745;48.708;9.026;2023-04-01T05:01:24;2.33;;;0.53;;
15287;SDS011;7745;48.708;9.026;2023-04-01T05:03:51;3.27;;;0.90;;
15287;SDS011;7745;48.708;9.026;2023-04-01T05:06:18;2.93;;;0.60;;
15287;SDS011;7745;48.708;9.026;2023-04-01T05:08:45;3.07;;;0.73;;
15287;SDS011;7745;48.708;9.026;2023-04-01T05:11:13;3.17;;;0.90;;
15287;SDS011;7745;48.708;9.026;2023-04-01T05:13:41;1.47;;;0.50;;
15287;SDS011;7745;48.708;9.026;2023-04-01T05:16:09;5.07;;;1.03;;
15287;SDS011;7745;48.708;9.026;2023-04-01T05:18:38;2.33;;;0.83;;
15287;SDS011;7745;48.708;9.026;2023-04-01T05:21:06;3.10;;;0.67;;
15287;SDS011;7745;48.708;9.026;2023-04-01T05:23:33;2.97;;;0.60;;
15287;SDS011;7745;48.708;9.026;2023-04-01T05:26:02;3.60;;;0.70;;
15287;SDS011;7745;48.708;9.026;2023-04-01T05:28:29;2.80;;;0.57;;
15287;SDS011;7745;48.708;9.026;2023-04-01T05:30:57;2.73;;;0.60;;
15287;SDS011;7745;48.708;9.026;2023-04-01T05:33:25;2.03;;;0.80;;
15287;SDS011;7745;48.708;9.026;2023-04-01T05:35:53;2.80;;;0.60;;
15287;SDS011;7745;48.708;9.026;2023-04-01T05:38:20;2.03;;;0.73;;
15287;SDS011;7745;48.708;9.026;2023-04-01T05:40:46;1.63;;;0.60;;
15287;SDS011;7745;48.708;9.026;2023-04-01T05:43:13;3.80;;;0.70;;
15287;SDS011;7745;48.708;9.026;2023-04-01T05:45:40;1.43;;;0.40;;
15287;SDS011;7745;48.708;9.026;2023-04-01T05:48:07;1.07;;;0.50;;
15287;SDS011;7745;48.708;9.026;2023-04-01T05:50:33;3.67;;;0.60;;
15287;SDS011;7745;48.708;9.026;2023-04-01T05:53:01;2.83;;;0.50;;
15287;SDS011;7745;48.708;9.026;2023-04-01T05:55:28;2.13;;;0.30;;
15287;SDS011;7745;48.708;9.026;2023-04-01T05:57:55;3.50;;;0.57;;
15287;SDS011;7745;48.708;9.026;2023-04-01T06:00:23;1.60;;;0.50;;
15287;SDS011;7745;48.708;9.026;2023-04-01T06:02:49;1.67;;;0.43;;
15287;SDS011;7745;48.708;9.026;2023-04-01T06:05:17;0.70;;;0.40;;
15287;SDS011;7745;48.708;9.026;2023-04-01T06:07:46;4.27;;;0.60;;
15287;SDS011;7745;48.708;9.026;2023-04-01T06:10:17;2.50;;;0.83;;
15287;SDS011;7745;48.708;9.026;2023-04-01T06:12:46;1.53;;;0.60;;
15287;SDS011;7745;48.708;9.026;2023-04-01T06:15:23;2.83;;;0.70;;
15287;SDS011;7745;48.708;9.026;2023-04-01T06:18:07;7.77;;;2.93;;
15287;SDS011;7745;48.708;9.026;2023-04-01T06:20:56;2.60;;;0.70;;
15287;SDS011;7745;48.708;9.026;2023-04-01T06:23:35;1.57;;;0.50;;
15287;SDS011;7745;48.708;9.026;2023-04-01T06:26:19;2.23;;;0.60;;
15287;SDS011;7745;48.708;9.026;2023-04-01T06:32:15;2.03;;;0.50;;
15287;SDS011;7745;48.708;9.026;2023-04-01T06:34:56;3.17;;;0.50;;
15287;SDS011;7745;48.708;9.026;2023-04-01T06:37:48;2.33;;;0.53;;
15287;SDS011;7745;48.708;9.026;2023-04-01T06:43:37;2.17;;;0.50;;
15287;SDS011;7745;48.708;9.026;2023-04-01T06:46:12;1.50;;;0.50;;
15287;SDS011;7745;48.708;9.026;2023-04-01T06:48:53;2.77;;;0.53;;
15287;SDS011;7745;48.708;9.026;2023-04-01T06:51:30;2.53;;;0.70;;
15287;SDS011;7745;48.708;9.026;2023-04-01T06:54:06;2.20;;;0.47;;
15287;SDS011;7745;48.708;9.026;2023-04-01T06:56:38;2.27;;;0.40;;
15287;SDS011;7745;48.708;9.026;2023-04-01T06:59:11;2.57;;;0.60;;
15287;SDS011;7745;48.708;9.026;2023-04-01T07:01:43;1.67;;;0.70;;
15287;SDS011;7745;48.708;9.026;2023-04-01T07:04:21;2.93;;;0.50;;
15287;SDS011;7745;48.708;9.026;2023-04-01T07:07:10;1.63;;;0.40;;
15287;SDS011;7745;48.708;9.026;2023-04-01T07:09:48;1.33;;;0.43;;
15287;SDS011;7745;48.708;9.026;2023-04-01T07:12:18;0.63;;;0.40;;
15287;SDS011;7745;48.708;9.026;2023-04-01T07:14:57;2.93;;;0.60;;
15287;SDS011;7745;48.708;9.026;2023-04-01T07:17:27;0.80;;;0.50;;
15287;SDS011;7745;48.708;9.026;2023-04-01T07:20:06;2.20;;;0.90;;
15287;SDS011;7745;48.708;9.026;2023-04-01T07:22:40;2.83;;;0.80;;
15287;SDS011;7745;48.708;9.026;2023-04-01T07:25:15;2.87;;;0.87;;
15287;SDS011;7745;48.708;9.026;2023-04-01T07:34:20;1.97;;;0.73;;
15287;SDS011;7745;48.708;9.026;2023-04-01T07:36:52;3.10;;;0.70;;
15287;SDS011;7745;48.708;9.026;2023-04-01T07:39:30;1.67;;;0.50;;
15287;SDS011;7745;48.708;9.026;2023-04-01T07:42:07;3.00;;;0.90;;
15287;SDS011;7745;48.708;9.026;2023-04-01T07:44:42;1.67;;;0.60;;
15287;SDS011;7745;48.708;9.026;2023-04-01T07:47:25;1.27;;;0.87;;
15287;SDS011;7745;48.708;9.026;2023-04-01T07:50:13;2.43;;;0.90;;
15287;SDS011;7745;48.708;9.026;2023-04-01T07:52:49;3.23;;;0.80;;
15287;SDS011;7745;48.708;9.026;2023-04-01T07:55:42;2.40;;;0.73;;
15287;SDS011;7745;48.708;9.026;2023-04-01T07:58:19;1.70;;;0.57;;
15287;SDS011;7745;48.708;9.026;2023-04-01T08:00:59;2.17;;;0.60;;
15287;SDS011;7745;48.708;9.026;2023-04-01T08:22:33;2.87;;;0.80;;
15287;SDS011;7745;48.708;9.026;2023-04-01T08:25:10;1.37;;;0.50;;
15287;SDS011;7745;48.708;9.026;2023-04-01T09:09:34;1.77;;;0.70;;
15287;SDS011;7745;48.708;9.026;2023-04-01T09:12:31;0.80;;;0.40;;
15287;SDS011;7745;48.708;9.026;2023-04-01T09:15:31;2.67;;;0.57;;
15287;SDS011;7745;48.708;9.026;2023-04-01T09:21:36;0.70;;;0.43;;
15287;SDS011;7745;48.708;9.026;2023-04-01T09:24:26;0.97;;;0.30;;
15287;SDS011;7745;48.708;9.026;2023-04-01T09:27:23;0.83;;;0.40;;
15287;SDS011;7745;48.708;9.026;2023-04-01T10:02:24;0.27;;;0.20;;
15287;SDS011;7745;48.708;9.026;2023-04-01T10:05:55;0.70;;;0.30;;
15287;SDS011;7745;48.708;9.026;2023-04-01T10:14:37;0.60;;;0.20;;
15287;SDS011;7745;48.708;9.026;2023-04-01T10:17:33;0.70;;;0.20;;
15287;SDS011;7745;48.708;9.026;2023-04-01T10:29:15;1.67;;;0.30;;
15287;SDS011;7745;48.708;9.026;2023-04-01T10:32:08;1.10;;;0.33;;
15287;SDS011;7745;48.708;9.026;2023-04-01T10:35:18;0.43;;;0.30;;
15287;SDS011;7745;48.708;9.026;2023-04-01T10:38:03;0.33;;;0.27;;
15287;SDS011;7745;48.708;9.026;2023-04-01T10:41:05;0.20;;;0.20;;
15287;SDS011;7745;48.708;9.026;2023-04-01T10:47:43;0.50;;;0.30;;
15287;SDS011;7745;48.708;9.026;2023-04-01T10:50:36;1.43;;;0.10;;
15287;SDS011;7745;48.708;9.026;2023-04-01T10:53:25;0.20;;;0.20;;
15287;SDS011;7745;48.708;9.026;2023-04-01T10:56:12;1.17;;;0.20;;
15287;SDS011;7745;48.708;9.026;2023-04-01T11:05:08;0.23;;;0.20;;
15287;SDS011;7745;48.708;9.026;2023-04-01T11:11:21;0.43;;;0.20;;
15287;SDS011;7745;48.708;9.026;2023-04-01T11:14:07;0.30;;;0.20;;
15287;SDS011;7745;48.708;9.026;2023-04-01T11:17:02;0.50;;;0.20;;
15287;SDS011;7745;48.708;9.026;2023-04-01T11:20:14;0.30;;;0.20;;
15287;SDS011;7745;48.708;9.026;2023-04-01T11:23:09;2.63;;;0.30;;
15287;SDS011;7745;48.708;9.026;2023-04-01T11:26:14;0.67;;;0.20;;
15287;SDS011;7745;48.708;9.026;2023-04-01T11:29:09;0.47;;;0.30;;
15287;SDS011;7745;48.708;9.026;2023-04-01T11:31:50;0.37;;;0.20;;
15287;SDS011;7745;48.708;9.026;2023-04-01T11:34:31;1.40;;;0.20;;
15287;SDS011;7745;48.708;9.026;2023-04-01T11:37:31;1.30;;;0.30;;
15287;SDS011;7745;48.708;9.026;2023-04-01T11:40:09;0.17;;;0.10;;
15287;SDS011;7745;48.708;9.026;2023-04-01T11:42:49;0.67;;;0.20;;
15287;SDS011;7745;48.708;9.026;2023-04-01T11:45:25;0.10;;;0.10;;
15287;SDS011;7745;48.708;9.026;2023-04-01T11:48:27;0.40;;;0.20;;
15287;SDS011;7745;48.708;9.026;2023-04-01T11:51:10;0.10;;;0.10;;
15287;SDS011;7745;48.708;9.026;2023-04-01T11:53:49;0.30;;;0.20;;
15287;SDS011;7745;48.708;9.026;2023-04-01T11:56:29;0.20;;;0.10;;
15287;SDS011;7745;48.708;9.026;2023-04-01T11:59:15;0.63;;;0.30;;
15287;SDS011;7745;48.708;9.026;2023-04-01T12:02:06;0.27;;;0.20;;
15287;SDS011;7745;48.708;9.026;2023-04-01T12:08:09;1.47;;;0.20;;
15287;SDS011;7745;48.708;9.026;2023-04-01T12:11:11;0.10;;;0.10;;
15287;SDS011;7745;48.708;9.026;2023-04-01T12:17:56;0.30;;;0.20;;
15287;SDS011;7745;48.708;9.026;2023-04-01T12:21:04;0.23;;;0.20;;
15287;SDS011;7745;48.708;9.026;2023-04-01T12:23:56;0.50;;;0.20;;
15287;SDS011;7745;48.708;9.026;2023-04-01T12:26:54;0.20;;;0.20;;
15287;SDS011;7745;48.708;9.026;2023-04-01T12:29:49;0.33;;;0.20;;
15287;SDS011;7745;48.708;9.026;2023-04-01T12:32:34;0.30;;;0.20;;
15287;SDS011;7745;48.708;9.026;2023-04-01T12:35:20;0.27;;;0.20;;
15287;SDS011;7745;48.708;9.026;2023-04-01T12:37:51;0.20;;;0.20;;
15287;SDS011;7745;48.708;9.026;2023-04-01T12:40:33;0.30;;;0.20;;
15287;SDS011;7745;48.708;9.026;2023-04-01T12:46:25;0.10;;;0.10;;
15287;SDS011;7745;48.708;9.026;2023-04-01T12:49:26;0.20;;;0.20;;
15287;SDS011;7745;48.708;9.026;2023-04-01T12:52:14;0.13;;;0.10;;
15287;SDS011;7745;48.708;9.026;2023-04-01T12:54:51;0.40;;;0.20;;
15287;SDS011;7745;48.708;9.026;2023-04-01T13:01:00;2.57;;;0.20;;
15287;SDS011;7745;48.708;9.026;2023-04-01T13:03:58;0.27;;;0.20;;
15287;SDS011;7745;48.708;9.026;2023-04-01T13:06:58;0.33;;;0.20;;
15287;SDS011;7745;48.708;9.026;2023-04-01T13:09:42;0.40;;;0.30;;
15287;SDS011;7745;48.708;9.026;2023-04-01T13:12:18;0.57;;;0.10;;
15287;SDS011;7745;48.708;9.026;2023-04-01T13:15:12;0.30;;;0.30;;
15287;SDS011;7745;48.708;9.026;2023-04-01T13:17:49;0.40;;;0.20;;
15287;SDS011;7745;48.708;9.026;2023-04-01T13:20:22;0.73;;;0.20;;
15287;SDS011;7745;48.708;9.026;2023-04-01T13:23:09;0.60;;;0.13;;
15287;SDS011;7745;48.708;9.026;2023-04-01T13:29:18;0.50;;;0.10;;
15287;SDS011;7745;48.708;9.026;2023-04-01T13:32:09;2.13;;;0.20;;
15287;SDS011;7745;48.708;9.026;2023-04-01T13:35:13;0.70;;;0.30;;
15287;SDS011;7745;48.708;9.026;2023-04-01T13:44:33;0.40;;;0.20;;
15287;SDS011;7745;48.708;9.026;2023-04-01T13:50:27;0.10;;;0.10;;
15287;SDS011;7745;48.708;9.026;2023-04-01T13:53:21;0.20;;;0.20;;
15287;SDS011;7745;48.708;9.026;2023-04-01T13:56:16;0.30;;;0.30;;
15287;SDS011;7745;48.708;9.026;2023-04-01T13:58:57;0.67;;;0.20;;
15287;SDS011;7745;48.708;9.026;2023-04-01T14:01:35;0.83;;;0.37;;
15287;SDS011;7745;48.708;9.026;2023-04-01T14:04:21;0.90;;;0.20;;
15287;SDS011;7745;48.708;9.026;2023-04-01T14:07:07;0.50;;;0.30;;
15287;SDS011;7745;48.708;9.026;2023-04-01T14:09:45;0.70;;;0.30;;
15287;SDS011;7745;48.708;9.026;2023-04-01T14:12:33;1.10;;;0.60;;
15287;SDS011;7745;48.708;9.026;2023-04-01T14:15:19;1.20;;;0.30;;
15287;SDS011;7745;48.708;9.026;2023-04-01T14:18:02;0.20;;;0.20;;
15287;SDS011;7745;48.708;9.026;2023-04-01T14:20:51;0.30;;;0.30;;
15287;SDS011;7745;48.708;9.026;2023-04-01T14:23:37;0.83;;;0.30;;
15287;SDS011;7745;48.708;9.026;2023-04-01T14:26:20;0.30;;;0.20;;
15287;SDS011;7745;48.708;9.026;2023-04-01T14:28:57;1.53;;;0.23;;
15287;SDS011;7745;48.708;9.026;2023-04-01T14:31:37;0.50;;;0.30;;
15287;SDS011;7745;48.708;9.026;2023-04-01T14:34:20;1.43;;;0.17;;
15287;SDS011;7745;48.708;9.026;2023-04-01T14:37:05;0.10;;;0.10;;
15287;SDS011;7745;48.708;9.026;2023-04-01T14:39:46;0.33;;;0.10;;
15287;SDS011;7745;48.708;9.026;2023-04-01T14:42:40;0.73;;;0.20;;
15287;SDS011;7745;48.708;9.026;2023-04-01T14:45:21;0.67;;;0.30;;
15287;SDS011;7745;48.708;9.026;2023-04-01T14:48:15;1.27;;;0.10;;
15287;SDS011;7745;48.708;9.026;2023-04-01T14:50:49;0.37;;;0.20;;
15287;SDS011;7745;48.708;9.026;2023-04-01T14:53:24;0.30;;;0.20;;
15287;SDS011;7745;48.708;9.026;2023-04-01T14:55:56;0.20;;;0.20;;
15287;SDS011;7745;48.708;9.026;2023-04-01T14:58:25;0.30;;;0.20;;
15287;SDS011;7745;48.708;9.026;2023-04-01T15:01:09;0.30;;;0.13;;
15287;SDS011;7745;48.708;9.026;2023-04-01T15:03:48;0.10;;;0.10;;
15287;SDS011;7745;48.708;9.026;2023-04-01T15:06:35;1.70;;;0.20;;
15287;SDS011;7745;48.708;9.026;2023-04-01T15:09:14;0.50;;;0.37;;
15287;SDS011;7745;48.708;9.026;2023-04-01T15:11:52;0.50;;;0.37;;
15287;SDS011;7745;48.708;9.026;2023-04-01T15:14:30;0.47;;;0.30;;
15287;SDS011;7745;48.708;9.026;2023-04-01T15:17:15;0.60;;;0.20;;
15287;SDS011;7745;48.708;9.026;2023-04-01T15:19:57;1.10;;;0.40;;
15287;SDS011;7745;48.708;9.026;2023-04-01T15:22:44;0.90;;;0.50;;
15287;SDS011;7745;48.708;9.026;2023-04-01T15:25:23;0.60;;;0.20;;
15287;SDS011;7745;48.708;9.026;2023-04-01T15:28:06;0.47;;;0.30;;
15287;SDS011;7745;48.708;9.026;2023-04-01T15:30:44;1.50;;;1.00;;
15287;SDS011;7745;48.708;9.026;2023-04-01T15:33:29;0.60;;;0.60;;
15287;SDS011;7745;48.708;9.026;2023-04-01T15:36:16;1.60;;;1.30;;
15287;SDS011;7745;48.708;9.026;2023-04-01T15:38:52;2.50;;;2.30;;
15287;SDS011;7745;48.708;9.026;2023-04-01T15:41:28;1.77;;;1.07;;
15287;SDS011;7745;48.708;9.026;2023-04-01T15:46:59;2.23;;;1.73;;
15287;SDS011;7745;48.708;9.026;2023-04-01T15:49:34;2.17;;;1.97;;
15287;SDS011;7745;48.708;9.026;2023-04-01T15:52:10;1.30;;;1.20;;
15287;SDS011;7745;48.708;9.026;2023-04-01T15:54:51;2.30;;;1.20;;
15287;SDS011;7745;48.708;9.026;2023-04-01T15:57:36;0.80;;;0.60;;
15287;SDS011;7745;48.708;9.026;2023-04-01T16:00:13;1.13;;;0.80;;
15287;SDS011;7745;48.708;9.026;2023-04-01T16:02:53;0.70;;;0.30;;
15287;SDS011;7745;48.708;9.026;2023-04-01T16:05:46;0.57;;;0.30;;
15287;SDS011;7745;48.708;9.026;2023-04-01T16:11:38;1.47;;;0.80;;
15287;SDS011;7745;48.708;9.026;2023-04-01T16:14:16;0.50;;;0.50;;
15287;SDS011;7745;48.708;9.026;2023-04-01T16:16:54;1.70;;;0.70;;
15287;SDS011;7745;48.708;9.026;2023-04-01T16:19:38;0.53;;;0.43;;
15287;SDS011;7745;48.708;9.026;2023-04-01T16:22:17;1.60;;;0.50;;
15287;SDS011;7745;48.708;9.026;2023-04-01T16:24:48;1.53;;;0.50;;
15287;SDS011;7745;48.708;9.026;2023-04-01T16:27:24;0.77;;;0.60;;
15287;SDS011;7745;48.708;9.026;2023-04-01T16:29:57;1.60;;;0.60;;
15287;SDS011;7745;48.708;9.026;2023-04-01T16:32:33;0.67;;;0.40;;
15287;SDS011;7745;48.708;9.026;2023-04-01T16:38:11;1.30;;;0.93;;
15287;SDS011;7745;48.708;9.026;2023-04-01T16:41:13;0.80;;;0.70;;
15287;SDS011;7745;48.708;9.026;2023-04-01T16:43:48;1.20;;;0.77;;
15287;SDS011;7745;48.708;9.026;2023-04-01T16:46:33;1.97;;;0.77;;
15287;SDS011;7745;48.708;9.026;2023-04-01T16:49:29;1.43;;;0.90;;
15287;SDS011;7745;48.708;9.026;2023-04-01T16:55:25;0.97;;;0.53;;
15287;SDS011;7745;48.708;9.026;2023-04-01T16:58:03;1.00;;;0.70;;
15287;SDS011;7745;48.708;9.026;2023-04-01T17:00:36;4.23;;;0.60;;
15287;SDS011;7745;48.708;9.026;2023-04-01T17:03:25;1.97;;;0.60;;
15287;SDS011;7745;48.708;9.026;2023-04-01T17:06:36;0.90;;;0.70;;
15287;SDS011;7745;48.708;9.026;2023-04-01T17:09:21;4.57;;;1.37;;
15287;SDS011;7745;48.708;9.026;2023-04-01T17:11:56;6.30;;;2.27;;
15287;SDS011;7745;48.708;9.026;2023-04-01T17:14:40;5.40;;;2.30;;
15287;SDS011;7745;48.708;9.026;2023-04-01T17:17:40;1.20;;;0.80;;
15287;SDS011;7745;48.708;9.026;2023-04-01T17:20:35;2.03;;;1.20;;
15287;SDS011;7745;48.708;9.026;2023-04-01T17:23:12;2.30;;;1.30;;
15287;SDS011;7745;48.708;9.026;2023-04-01T17:26:03;2.10;;;1.20;;
15287;SDS011;7745;48.708;9.026;2023-04-01T17:28:51;2.87;;;0.93;;
15287;SDS011;7745;48.708;9.026;2023-04-01T17:31:35;4.10;;;1.60;;
15287;SDS011;7745;48.708;9.026;2023-04-01T17:37:18;1.73;;;0.90;;
15287;SDS011;7745;48.708;9.026;2023-04-01T17:39:57;2.07;;;1.00;;
15287;SDS011;7745;48.708;9.026;2023-04-01T17:42:48;1.50;;;0.90;;
15287;SDS011;7745;48.708;9.026;2023-04-01T17:45:24;1.07;;;0.80;;
15287;SDS011;7745;48.708;9.026;2023-04-01T17:47:59;2.23;;;0.70;;
15287;SDS011;7745;48.708;9.026;2023-04-01T17:53:57;4.80;;;1.20;;
15287;SDS011;7745;48.708;9.026;2023-04-01T17:56:38;1.40;;;0.80;;
15287;SDS011;7745;48.708;9.026;2023-04-01T17:59:35;1.90;;;1.20;;
15287;SDS011;7745;48.708;9.026;2023-04-01T18:02:32;3.70;;;2.00;;
15287;SDS011;7745;48.708;9.026;2023-04-01T18:05:21;4.10;;;2.27;;
15287;SDS011;7745;48.708;9.026;2023-04-01T18:12:30;4.73;;;2.10;;
15287;SDS011;7745;48.708;9.026;2023-04-01T18:17:46;0.73;;;0.60;;
15287;SDS011;7745;48.708;9.026;2023-04-01T18:24:27;3.70;;;1.77;;
15287;SDS011;7745;48.708;9.026;2023-04-01T18:27:01;4.30;;;2.17;;
15287;SDS011;7745;48.708;9.026;2023-04-01T18:32:58;2.43;;;1.50;;
15287;SDS011;7745;48.708;9.026;2023-04-01T18:35:57;2.47;;;1.40;;
15287;SDS011;7745;48.708;9.026;2023-04-01T18:38:44;1.10;;;1.00;;
15287;SDS011;7745;48.708;9.026;2023-04-01T18:41:32;1.83;;;0.90;;
15287;SDS011;7745;48.708;9.026;2023-04-01T18:44:38;2.60;;;1.60;;
15287;SDS011;7745;48.708;9.026;2023-04-01T18:47:32;1.67;;;1.00;;
15287;SDS011;7745;48.708;9.026;2023-04-01T18:50:13;1.87;;;0.70;;
15287;SDS011;7745;48.708;9.026;2023-04-01T18:52:49;1.07;;;0.80;;
15287;SDS011;7745;48.708;9.026;2023-04-01T18:55:51;1.47;;;0.60;;
15287;SDS011;7745;48.708;9.026;2023-04-01T18:58:35;0.70;;;0.50;;
15287;SDS011;7745;48.708;9.026;2023-04-01T19:01:14;0.77;;;0.50;;
15287;SDS011;7745;48.708;9.026;2023-04-01T19:03:52;1.80;;;0.60;;
15287;SDS011;7745;48.708;9.026;2023-04-01T19:06:30;0.80;;;0.80;;
15287;SDS011;7745;48.708;9.026;2023-04-01T19:09:08;1.57;;;1.20;;
15287;SDS011;7745;48.708;9.026;2023-04-01T19:11:54;3.63;;;2.03;;
15287;SDS011;7745;48.708;9.026;2023-04-01T19:14:38;3.20;;;1.40;;
15287;SDS011;7745;48.708;9.026;2023-04-01T19:17:24;1.73;;;1.00;;
15287;SDS011;7745;48.708;9.026;2023-04-01T19:20:00;3.27;;;0.90;;
15287;SDS011;7745;48.708;9.026;2023-04-01T19:22:42;2.67;;;0.90;;